sensor_id;sensor_type;location;lat;lon;timestamp;pressure;altitude;pressure_sealevel;temperature;humidity
69689;BME280;56932;38.402;-96.176;2022-12-18T00:02:17;97910.94;;;20.39;15.67
69689;BME280;56932;38.402;-96.176;2022-12-18T00:04:42;97910.32;;;20.20;15.74
69689;BME280;56932;38.402;-96.176;2022-12-18T00:07:08;97919.79;;;19.85;16.00
69689;BME280;56932;38.402;-96.176;2022-12-18T00:09:33;97915.97;;;19.22;16.37
69689;BME280;56932;38.402;-96.176;2022-12-18T00:11:59;97916.00;;;20.06;15.90
69689;BME280;56932;38.402;-96.176;2022-12-18T00:14:25;97914.63;;;19.46;16.33
69689;BME280;56932;38.402;-96.176;2022-12-18T00:16:50;97918.65;;;20.06;15.86
69689;BME280;56932;38.402;-96.176;2022-12-18T00:19:16;97921.38;;;20.24;15.78
69689;BME280;56932;38.402;-96.176;2022-12-18T00:21:42;97921.12;;;20.19;15.77
69689;BME280;56932;38.402;-96.176;2022-12-18T00:24:07;97923.02;;;20.06;15.89
69689;BME280;56932;38.402;-96.176;2022-12-18T00:26:34;97926.52;;;20.17;15.79
69689;BME280;56932;38.402;-96.176;2022-12-18T00:28:59;97928.83;;;20.50;15.79
69689;BME280;56932;38.402;-96.176;2022-12-18T00:31:25;97937.30;;;20.53;15.89
69689;BME280;56932;38.402;-96.176;2022-12-18T00:33:49;97938.37;;;20.10;16.03
69689;BME280;56932;38.402;-96.176;2022-12-18T00:36:16;97934.71;;;20.14;15.88
69689;BME280;56932;38.402;-96.176;2022-12-18T00:38:40;97938.14;;;19.90;16.09
69689;BME280;56932;38.402;-96.176;2022-12-18T00:41:09;97938.47;;;19.79;16.24
69689;BME280;56932;38.402;-96.176;2022-12-18T00:43:35;97939.40;;;19.74;16.28
69689;BME280;56932;38.402;-96.176;2022-12-18T00:45:56;97943.09;;;19.60;16.44
69689;BME280;56932;38.402;-96.176;2022-12-18T00:48:22;97943.49;;;20.33;15.97
69689;BME280;56932;38.402;-96.176;2022-12-18T00:50:48;97942.71;;;20.02;16.39
69689;BME280;56932;38.402;-96.176;2022-12-18T00:53:13;97948.59;;;19.65;16.27
69689;BME280;56932;38.402;-96.176;2022-12-18T00:55:40;97949.69;;;20.32;15.96
69689;BME280;56932;38.402;-96.176;2022-12-18T00:58:05;97949.39;;;19.99;16.33
69689;BME280;56932;38.402;-96.176;2022-12-18T01:00:30;97954.90;;;19.64;16.39
69689;BME280;56932;38.402;-96.176;2022-12-18T01:02:55;97957.95;;;19.53;16.42
69689;BME280;56932;38.402;-96.176;2022-12-18T01:05:21;97958.99;;;20.13;16.22
69689;BME280;56932;38.402;-96.176;2022-12-18T01:07:46;97957.03;;;19.63;16.36
69689;BME280;56932;38.402;-96.176;2022-12-18T01:10:13;97958.08;;;19.81;16.26
69689;BME280;56932;38.402;-96.176;2022-12-18T01:12:38;97954.20;;;19.86;16.26
69689;BME280;56932;38.402;-96.176;2022-12-18T01:15:05;97954.05;;;19.66;16.37
69689;BME280;56932;38.402;-96.176;2022-12-18T01:17:29;97955.44;;;20.14;16.02
69689;BME280;56932;38.402;-96.176;2022-12-18T01:19:54;97952.67;;;19.61;16.33
69689;BME280;56932;38.402;-96.176;2022-12-18T01:22:20;97958.27;;;19.58;16.36
69689;BME280;56932;38.402;-96.176;2022-12-18T01:24:46;97964.75;;;19.86;16.25
69689;BME280;56932;38.402;-96.176;2022-12-18T01:27:11;97965.44;;;20.28;16.18
69689;BME280;56932;38.402;-96.176;2022-12-18T01:29:37;97971.00;;;19.60;16.61
69689;BME280;56932;38.402;-96.176;2022-12-18T01:32:02;97972.81;;;19.60;16.47
69689;BME280;56932;38.402;-96.176;2022-12-18T01:34:28;97974.79;;;19.98;16.43
69689;BME280;56932;38.402;-96.176;2022-12-18T01:36:53;97979.50;;;19.67;16.43
69689;BME280;56932;38.402;-96.176;2022-12-18T01:39:19;97979.95;;;19.37;16.67
69689;BME280;56932;38.402;-96.176;2022-12-18T01:41:45;97985.92;;;19.02;16.86
69689;BME280;56932;38.402;-96.176;2022-12-18T01:46:36;97988.04;;;19.75;16.40
69689;BME280;56932;38.402;-96.176;2022-12-18T01:49:02;97987.35;;;19.94;16.26
69689;BME280;56932;38.402;-96.176;2022-12-18T01:51:27;97989.04;;;19.54;16.69
69689;BME280;56932;38.402;-96.176;2022-12-18T01:53:52;97991.36;;;19.57;16.68
69689;BME280;56932;38.402;-96.176;2022-12-18T01:56:21;97998.03;;;19.55;16.70
69689;BME280;56932;38.402;-96.176;2022-12-18T01:58:51;97998.53;;;19.92;16.47
69689;BME280;56932;38.402;-96.176;2022-12-18T02:01:09;97997.65;;;19.26;16.73
69689;BME280;56932;38.402;-96.176;2022-12-18T02:03:35;97996.84;;;18.97;16.89
69689;BME280;56932;38.402;-96.176;2022-12-18T02:06:06;98000.42;;;19.74;16.53
69689;BME280;56932;38.402;-96.176;2022-12-18T02:08:30;98001.85;;;19.74;16.51
69689;BME280;56932;38.402;-96.176;2022-12-18T02:10:59;98004.50;;;19.41;16.71
69689;BME280;56932;38.402;-96.176;2022-12-18T02:13:20;98006.13;;;19.81;16.25
69689;BME280;56932;38.402;-96.176;2022-12-18T02:15:50;98008.59;;;19.04;16.69
69689;BME280;56932;38.402;-96.176;2022-12-18T02:18:10;98014.31;;;19.81;16.42
69689;BME280;56932;38.402;-96.176;2022-12-18T02:20:36;98018.06;;;19.71;16.45
69689;BME280;56932;38.402;-96.176;2022-12-18T02:23:08;98016.10;;;19.06;16.68
69689;BME280;56932;38.402;-96.176;2022-12-18T02:27:51;98026.01;;;19.99;16.33
69689;BME280;56932;38.402;-96.176;2022-12-18T02:30:17;98025.79;;;19.59;16.60
69689;BME280;56932;38.402;-96.176;2022-12-18T02:32:45;98027.94;;;19.14;16.97
69689;BME280;56932;38.402;-96.176;2022-12-18T02:35:12;98027.55;;;19.51;16.76
69689;BME280;56932;38.402;-96.176;2022-12-18T02:37:34;98026.50;;;19.81;16.58
69689;BME280;56932;38.402;-96.176;2022-12-18T02:39:59;98020.18;;;18.86;17.18
69689;BME280;56932;38.402;-96.176;2022-12-18T02:42:24;98019.45;;;18.06;17.76
69689;BME280;56932;38.402;-96.176;2022-12-18T02:44:51;98017.00;;;18.46;17.55
69689;BME280;56932;38.402;-96.176;2022-12-18T02:47:16;98019.14;;;17.13;18.43
69689;BME280;56932;38.402;-96.176;2022-12-18T02:49:48;98022.40;;;17.05;18.55
69689;BME280;56932;38.402;-96.176;2022-12-18T02:52:13;98022.60;;;17.78;18.11
69689;BME280;56932;38.402;-96.176;2022-12-18T02:54:41;98024.90;;;17.68;18.22
69689;BME280;56932;38.402;-96.176;2022-12-18T02:56:59;98036.70;;;17.33;18.50
69689;BME280;56932;38.402;-96.176;2022-12-18T02:59:29;98037.74;;;17.02;18.75
69689;BME280;56932;38.402;-96.176;2022-12-18T03:01:52;98037.53;;;17.43;18.73
69689;BME280;56932;38.402;-96.176;2022-12-18T03:04:18;98034.88;;;17.27;18.68
69689;BME280;56932;38.402;-96.176;2022-12-18T03:06:42;98034.84;;;17.64;18.68
69689;BME280;56932;38.402;-96.176;2022-12-18T03:09:10;98038.11;;;17.61;18.56
69689;BME280;56932;38.402;-96.176;2022-12-18T03:11:34;98043.30;;;18.03;18.32
69689;BME280;56932;38.402;-96.176;2022-12-18T03:13:57;98035.14;;;17.97;18.26
69689;BME280;56932;38.402;-96.176;2022-12-18T03:16:24;98035.19;;;17.82;18.40
69689;BME280;56932;38.402;-96.176;2022-12-18T03:18:49;98033.75;;;17.86;18.60
69689;BME280;56932;38.402;-96.176;2022-12-18T03:21:13;98034.51;;;18.32;18.24
69689;BME280;56932;38.402;-96.176;2022-12-18T03:23:42;98029.66;;;18.01;18.59
69689;BME280;56932;38.402;-96.176;2022-12-18T03:26:07;98026.24;;;18.36;18.39
69689;BME280;56932;38.402;-96.176;2022-12-18T03:28:31;98031.27;;;17.82;18.62
69689;BME280;56932;38.402;-96.176;2022-12-18T03:30:58;98036.57;;;17.49;18.68
69689;BME280;56932;38.402;-96.176;2022-12-18T03:33:25;98045.78;;;17.58;19.02
69689;BME280;56932;38.402;-96.176;2022-12-18T03:35:46;98049.83;;;17.94;18.64
69689;BME280;56932;38.402;-96.176;2022-12-18T03:38:11;98046.45;;;18.23;18.60
69689;BME280;56932;38.402;-96.176;2022-12-18T03:40:45;98049.14;;;18.67;17.96
69689;BME280;56932;38.402;-96.176;2022-12-18T03:43:07;98054.16;;;18.19;18.66
69689;BME280;56932;38.402;-96.176;2022-12-18T03:45:31;98055.33;;;18.31;18.46
69689;BME280;56932;38.402;-96.176;2022-12-18T03:48:00;98052.05;;;18.11;18.70
69689;BME280;56932;38.402;-96.176;2022-12-18T03:50:22;98053.68;;;19.04;17.80
69689;BME280;56932;38.402;-96.176;2022-12-18T03:52:48;98058.13;;;19.03;17.75
69689;BME280;56932;38.402;-96.176;2022-12-18T03:55:10;98058.36;;;18.83;17.84
69689;BME280;56932;38.402;-96.176;2022-12-18T03:57:36;98056.94;;;19.57;17.27
69689;BME280;56932;38.402;-96.176;2022-12-18T04:00:04;98054.96;;;20.07;17.05
69689;BME280;56932;38.402;-96.176;2022-12-18T04:02:27;98053.98;;;18.64;17.78
69689;BME280;56932;38.402;-96.176;2022-12-18T04:04:55;98061.43;;;19.70;17.30
69689;BME280;56932;38.402;-96.176;2022-12-18T04:07:19;98064.51;;;19.33;17.43
69689;BME280;56932;38.402;-96.176;2022-12-18T04:09:44;98067.34;;;19.64;17.04
69689;BME280;56932;38.402;-96.176;2022-12-18T04:12:09;98069.05;;;20.07;16.77
69689;BME280;56932;38.402;-96.176;2022-12-18T04:14:34;98074.14;;;20.04;17.07
69689;BME280;56932;38.402;-96.176;2022-12-18T04:17:00;98078.56;;;19.93;16.81
69689;BME280;56932;38.402;-96.176;2022-12-18T04:19:25;98081.40;;;20.00;16.76
69689;BME280;56932;38.402;-96.176;2022-12-18T04:21:51;98084.38;;;20.26;16.87
69689;BME280;56932;38.402;-96.176;2022-12-18T04:24:16;98084.67;;;19.86;17.00
69689;BME280;56932;38.402;-96.176;2022-12-18T04:26:42;98087.44;;;20.17;16.84
69689;BME280;56932;38.402;-96.176;2022-12-18T04:29:08;98085.12;;;19.86;16.84
69689;BME280;56932;38.402;-96.176;2022-12-18T04:31:33;98089.74;;;20.15;16.91
69689;BME280;56932;38.402;-96.176;2022-12-18T04:33:59;98089.23;;;19.89;16.92
69689;BME280;56932;38.402;-96.176;2022-12-18T04:36:27;98090.33;;;19.84;16.81
69689;BME280;56932;38.402;-96.176;2022-12-18T04:38:50;98087.71;;;20.00;16.85
69689;BME280;56932;38.402;-96.176;2022-12-18T04:41:15;98089.36;;;19.52;17.02
69689;BME280;56932;38.402;-96.176;2022-12-18T04:43:41;98088.62;;;19.85;17.09
69689;BME280;56932;38.402;-96.176;2022-12-18T04:46:08;98089.04;;;19.93;17.01
69689;BME280;56932;38.402;-96.176;2022-12-18T04:48:33;98094.91;;;19.52;17.25
69689;BME280;56932;38.402;-96.176;2022-12-18T04:50:58;98089.67;;;19.69;17.14
69689;BME280;56932;38.402;-96.176;2022-12-18T04:53:23;98089.27;;;19.75;17.07
69689;BME280;56932;38.402;-96.176;2022-12-18T04:55:49;98093.03;;;19.58;17.16
69689;BME280;56932;38.402;-96.176;2022-12-18T04:58:15;98098.97;;;19.64;17.11
69689;BME280;56932;38.402;-96.176;2022-12-18T05:00:40;98102.94;;;19.56;17.14
69689;BME280;56932;38.402;-96.176;2022-12-18T05:03:06;98104.07;;;19.62;17.07
69689;BME280;56932;38.402;-96.176;2022-12-18T05:05:33;98106.70;;;19.38;17.21
69689;BME280;56932;38.402;-96.176;2022-12-18T05:07:57;98108.62;;;19.49;17.12
69689;BME280;56932;38.402;-96.176;2022-12-18T05:10:22;98117.14;;;19.41;17.00
69689;BME280;56932;38.402;-96.176;2022-12-18T05:12:48;98121.46;;;19.57;17.01
69689;BME280;56932;38.402;-96.176;2022-12-18T05:15:14;98125.80;;;19.77;16.97
69689;BME280;56932;38.402;-96.176;2022-12-18T05:17:39;98127.51;;;19.38;17.06
69689;BME280;56932;38.402;-96.176;2022-12-18T05:20:05;98136.36;;;19.73;17.01
69689;BME280;56932;38.402;-96.176;2022-12-18T05:22:30;98140.48;;;19.35;17.06
69689;BME280;56932;38.402;-96.176;2022-12-18T05:24:56;98140.25;;;19.62;16.86
69689;BME280;56932;38.402;-96.176;2022-12-18T05:27:21;98142.40;;;18.73;17.35
69689;BME280;56932;38.402;-96.176;2022-12-18T05:29:47;98137.07;;;19.06;17.15
69689;BME280;56932;38.402;-96.176;2022-12-18T05:32:12;98134.21;;;19.04;17.04
69689;BME280;56932;38.402;-96.176;2022-12-18T05:34:38;98138.17;;;19.47;16.89
69689;BME280;56932;38.402;-96.176;2022-12-18T05:37:04;98139.01;;;19.13;17.05
69689;BME280;56932;38.402;-96.176;2022-12-18T05:39:29;98137.00;;;19.08;17.07
69689;BME280;56932;38.402;-96.176;2022-12-18T05:41:55;98138.76;;;19.21;17.15
69689;BME280;56932;38.402;-96.176;2022-12-18T05:44:20;98143.63;;;19.18;17.06
69689;BME280;56932;38.402;-96.176;2022-12-18T05:46:46;98143.00;;;19.19;17.14
69689;BME280;56932;38.402;-96.176;2022-12-18T05:49:12;98145.44;;;19.58;17.01
69689;BME280;56932;38.402;-96.176;2022-12-18T05:51:37;98150.36;;;19.10;17.15
69689;BME280;56932;38.402;-96.176;2022-12-18T05:54:03;98148.04;;;18.88;17.10
69689;BME280;56932;38.402;-96.176;2022-12-18T05:56:28;98143.27;;;19.28;17.02
69689;BME280;56932;38.402;-96.176;2022-12-18T05:58:54;98137.64;;;18.91;17.32
69689;BME280;56932;38.402;-96.176;2022-12-18T06:01:21;98140.80;;;18.77;17.11
69689;BME280;56932;38.402;-96.176;2022-12-18T06:03:46;98145.75;;;18.90;17.24
69689;BME280;56932;38.402;-96.176;2022-12-18T06:06:15;98149.37;;;19.00;16.87
69689;BME280;56932;38.402;-96.176;2022-12-18T06:08:36;98150.26;;;19.32;16.88
69689;BME280;56932;38.402;-96.176;2022-12-18T06:11:02;98153.88;;;18.85;17.05
69689;BME280;56932;38.402;-96.176;2022-12-18T06:13:27;98155.38;;;18.89;17.18
69689;BME280;56932;38.402;-96.176;2022-12-18T06:15:53;98156.20;;;18.88;17.20
69689;BME280;56932;38.402;-96.176;2022-12-18T06:18:18;98159.10;;;18.83;17.18
69689;BME280;56932;38.402;-96.176;2022-12-18T06:20:44;98157.67;;;18.99;17.26
69689;BME280;56932;38.402;-96.176;2022-12-18T06:23:10;98156.85;;;18.68;17.21
69689;BME280;56932;38.402;-96.176;2022-12-18T06:25:38;98160.85;;;18.73;17.28
69689;BME280;56932;38.402;-96.176;2022-12-18T06:28:01;98161.27;;;18.38;17.32
69689;BME280;56932;38.402;-96.176;2022-12-18T06:30:26;98154.06;;;18.72;17.12
69689;BME280;56932;38.402;-96.176;2022-12-18T06:32:52;98154.33;;;19.04;17.04
69689;BME280;56932;38.402;-96.176;2022-12-18T06:35:17;98155.03;;;18.58;17.30
69689;BME280;56932;38.402;-96.176;2022-12-18T06:37:43;98157.40;;;18.25;17.36
69689;BME280;56932;38.402;-96.176;2022-12-18T06:40:09;98153.14;;;18.58;17.28
69689;BME280;56932;38.402;-96.176;2022-12-18T06:42:34;98152.43;;;18.74;17.14
69689;BME280;56932;38.402;-96.176;2022-12-18T06:45:00;98163.54;;;18.51;17.30
69689;BME280;56932;38.402;-96.176;2022-12-18T06:47:25;98161.86;;;18.41;17.35
69689;BME280;56932;38.402;-96.176;2022-12-18T06:49:51;98160.14;;;18.50;17.27
69689;BME280;56932;38.402;-96.176;2022-12-18T06:52:16;98158.13;;;18.53;17.23
69689;BME280;56932;38.402;-96.176;2022-12-18T06:54:42;98160.86;;;18.16;17.41
69689;BME280;56932;38.402;-96.176;2022-12-18T06:57:08;98157.91;;;18.43;17.23
69689;BME280;56932;38.402;-96.176;2022-12-18T06:59:33;98157.25;;;18.45;17.21
69689;BME280;56932;38.402;-96.176;2022-12-18T07:01:59;98161.35;;;18.43;17.18
69689;BME280;56932;38.402;-96.176;2022-12-18T07:04:28;98158.62;;;18.33;17.23
69689;BME280;56932;38.402;-96.176;2022-12-18T07:06:50;98162.61;;;18.18;17.32
69689;BME280;56932;38.402;-96.176;2022-12-18T07:09:15;98162.34;;;18.32;17.24
69689;BME280;56932;38.402;-96.176;2022-12-18T07:11:41;98166.95;;;18.44;17.17
69689;BME280;56932;38.402;-96.176;2022-12-18T07:14:07;98169.09;;;17.15;17.96
69689;BME280;56932;38.402;-96.176;2022-12-18T07:16:32;98167.54;;;16.86;18.20
69689;BME280;56932;38.402;-96.176;2022-12-18T07:18:58;98178.99;;;18.10;17.48
69689;BME280;56932;38.402;-96.176;2022-12-18T07:21:24;98182.37;;;16.91;18.50
69689;BME280;56932;38.402;-96.176;2022-12-18T07:23:49;98182.96;;;17.02;18.30
69689;BME280;56932;38.402;-96.176;2022-12-18T07:26:16;98176.47;;;16.56;19.06
69689;BME280;56932;38.402;-96.176;2022-12-18T07:28:41;98178.99;;;16.84;18.79
69689;BME280;56932;38.402;-96.176;2022-12-18T07:31:07;98172.47;;;16.51;19.13
69689;BME280;56932;38.402;-96.176;2022-12-18T07:33:32;98175.15;;;16.42;19.43
69689;BME280;56932;38.402;-96.176;2022-12-18T07:35:59;98186.26;;;16.97;19.14
69689;BME280;56932;38.402;-96.176;2022-12-18T07:38:23;98185.42;;;16.89;19.26
69689;BME280;56932;38.402;-96.176;2022-12-18T07:40:48;98186.64;;;17.16;18.98
69689;BME280;56932;38.402;-96.176;2022-12-18T07:43:14;98188.30;;;17.43;18.99
69689;BME280;56932;38.402;-96.176;2022-12-18T07:45:40;98190.35;;;17.28;19.00
69689;BME280;56932;38.402;-96.176;2022-12-18T07:48:05;98196.02;;;17.17;18.98
69689;BME280;56932;38.402;-96.176;2022-12-18T07:50:30;98200.60;;;17.36;18.90
69689;BME280;56932;38.402;-96.176;2022-12-18T07:52:55;98199.81;;;17.37;18.96
69689;BME280;56932;38.402;-96.176;2022-12-18T07:55:21;98199.39;;;17.63;18.83
69689;BME280;56932;38.402;-96.176;2022-12-18T07:57:46;98194.95;;;17.68;18.82
69689;BME280;56932;38.402;-96.176;2022-12-18T08:00:13;98197.80;;;17.67;18.89
69689;BME280;56932;38.402;-96.176;2022-12-18T08:02:38;98201.80;;;17.71;18.91
69689;BME280;56932;38.402;-96.176;2022-12-18T08:05:04;98203.68;;;17.58;19.01
69689;BME280;56932;38.402;-96.176;2022-12-18T08:07:29;98205.09;;;17.59;19.04
69689;BME280;56932;38.402;-96.176;2022-12-18T08:09:54;98213.02;;;18.01;18.77
69689;BME280;56932;38.402;-96.176;2022-12-18T08:12:20;98214.17;;;17.70;18.99
69689;BME280;56932;38.402;-96.176;2022-12-18T08:14:45;98226.19;;;17.38;19.12
69689;BME280;56932;38.402;-96.176;2022-12-18T08:17:11;98227.34;;;17.46;19.07
69689;BME280;56932;38.402;-96.176;2022-12-18T08:19:36;98227.34;;;17.75;19.04
69689;BME280;56932;38.402;-96.176;2022-12-18T08:22:02;98222.96;;;17.52;19.22
69689;BME280;56932;38.402;-96.176;2022-12-18T08:24:28;98226.61;;;17.38;19.34
69689;BME280;56932;38.402;-96.176;2022-12-18T08:26:53;98241.32;;;18.16;18.83
69689;BME280;56932;38.402;-96.176;2022-12-18T08:29:18;98253.50;;;18.15;18.82
69689;BME280;56932;38.402;-96.176;2022-12-18T08:31:44;98252.44;;;17.76;18.90
69689;BME280;56932;38.402;-96.176;2022-12-18T08:34:09;98246.18;;;18.74;18.21
69689;BME280;56932;38.402;-96.176;2022-12-18T08:36:35;98248.82;;;18.92;17.86
69689;BME280;56932;38.402;-96.176;2022-12-18T08:39:01;98254.43;;;19.06;17.81
69689;BME280;56932;38.402;-96.176;2022-12-18T08:41:26;98261.36;;;19.44;17.55
69689;BME280;56932;38.402;-96.176;2022-12-18T08:43:52;98265.25;;;18.58;18.14
69689;BME280;56932;38.402;-96.176;2022-12-18T08:46:18;98260.52;;;18.92;17.85
69689;BME280;56932;38.402;-96.176;2022-12-18T08:48:43;98262.75;;;19.68;17.39
69689;BME280;56932;38.402;-96.176;2022-12-18T08:51:08;98272.29;;;19.03;17.73
69689;BME280;56932;38.402;-96.176;2022-12-18T08:53:34;98275.99;;;19.64;17.22
69689;BME280;56932;38.402;-96.176;2022-12-18T08:55:59;98276.06;;;20.11;17.03
69689;BME280;56932;38.402;-96.176;2022-12-18T08:58:25;98276.74;;;20.26;16.80
69689;BME280;56932;38.402;-96.176;2022-12-18T09:00:51;98271.67;;;20.27;16.78
69689;BME280;56932;38.402;-96.176;2022-12-18T09:03:18;98274.97;;;19.59;17.05
69689;BME280;56932;38.402;-96.176;2022-12-18T09:05:43;98276.62;;;19.24;17.31
69689;BME280;56932;38.402;-96.176;2022-12-18T09:08:08;98279.60;;;19.69;16.87
69689;BME280;56932;38.402;-96.176;2022-12-18T09:10:33;98283.23;;;20.01;16.88
69689;BME280;56932;38.402;-96.176;2022-12-18T09:12:58;98280.78;;;19.79;16.91
69689;BME280;56932;38.402;-96.176;2022-12-18T09:15:24;98277.86;;;19.91;16.93
69689;BME280;56932;38.402;-96.176;2022-12-18T09:17:50;98275.60;;;19.92;16.88
69689;BME280;56932;38.402;-96.176;2022-12-18T09:20:15;98276.29;;;19.93;16.69
69689;BME280;56932;38.402;-96.176;2022-12-18T09:22:41;98277.37;;;20.09;16.57
69689;BME280;56932;38.402;-96.176;2022-12-18T09:25:06;98276.01;;;19.34;16.86
69689;BME280;56932;38.402;-96.176;2022-12-18T09:27:32;98270.38;;;19.47;16.88
69689;BME280;56932;38.402;-96.176;2022-12-18T09:29:57;98270.94;;;19.95;16.72
69689;BME280;56932;38.402;-96.176;2022-12-18T09:32:23;98269.68;;;19.66;16.82
69689;BME280;56932;38.402;-96.176;2022-12-18T09:34:48;98265.39;;;19.86;16.76
69689;BME280;56932;38.402;-96.176;2022-12-18T09:37:14;98256.76;;;19.88;16.68
69689;BME280;56932;38.402;-96.176;2022-12-18T09:39:39;98254.00;;;19.48;16.78
69689;BME280;56932;38.402;-96.176;2022-12-18T09:42:05;98255.87;;;19.53;16.72
69689;BME280;56932;38.402;-96.176;2022-12-18T09:44:33;98254.25;;;19.43;16.80
69689;BME280;56932;38.402;-96.176;2022-12-18T09:47:05;98250.74;;;19.61;16.71
69689;BME280;56932;38.402;-96.176;2022-12-18T09:49:24;98245.65;;;19.46;16.85
69689;BME280;56932;38.402;-96.176;2022-12-18T09:51:50;98239.48;;;19.20;16.89
69689;BME280;56932;38.402;-96.176;2022-12-18T09:54:16;98241.12;;;19.31;16.89
69689;BME280;56932;38.402;-96.176;2022-12-18T09:56:41;98244.19;;;19.47;16.61
69689;BME280;56932;38.402;-96.176;2022-12-18T09:59:04;98245.40;;;19.29;16.83
69689;BME280;56932;38.402;-96.176;2022-12-18T10:01:31;98241.93;;;19.19;16.88
69689;BME280;56932;38.402;-96.176;2022-12-18T10:03:55;98241.89;;;19.35;16.95
69689;BME280;56932;38.402;-96.176;2022-12-18T10:06:26;98241.03;;;19.18;16.86
69689;BME280;56932;38.402;-96.176;2022-12-18T10:08:51;98236.82;;;18.90;16.99
69689;BME280;56932;38.402;-96.176;2022-12-18T10:11:21;98243.63;;;19.25;16.73
69689;BME280;56932;38.402;-96.176;2022-12-18T10:13:41;98247.64;;;19.51;16.71
69689;BME280;56932;38.402;-96.176;2022-12-18T10:16:11;98248.37;;;19.40;16.75
69689;BME280;56932;38.402;-96.176;2022-12-18T10:18:39;98244.60;;;19.31;16.77
69689;BME280;56932;38.402;-96.176;2022-12-18T10:20:58;98242.90;;;19.05;16.83
69689;BME280;56932;38.402;-96.176;2022-12-18T10:23:23;98246.17;;;19.01;16.74
69689;BME280;56932;38.402;-96.176;2022-12-18T10:25:51;98253.01;;;18.88;17.01
69689;BME280;56932;38.402;-96.176;2022-12-18T10:28:13;98258.16;;;18.77;16.81
69689;BME280;56932;38.402;-96.176;2022-12-18T10:30:36;98258.04;;;19.00;16.85
69689;BME280;56932;38.402;-96.176;2022-12-18T10:33:02;98258.70;;;18.64;16.89
69689;BME280;56932;38.402;-96.176;2022-12-18T10:35:27;98259.73;;;19.04;16.58
69689;BME280;56932;38.402;-96.176;2022-12-18T10:38:01;98262.99;;;18.76;16.77
69689;BME280;56932;38.402;-96.176;2022-12-18T10:40:19;98265.68;;;18.89;16.80
69689;BME280;56932;38.402;-96.176;2022-12-18T10:42:44;98261.46;;;18.92;16.77
69689;BME280;56932;38.402;-96.176;2022-12-18T10:45:12;98258.48;;;18.56;16.84
69689;BME280;56932;38.402;-96.176;2022-12-18T10:47:35;98261.99;;;19.16;16.73
69689;BME280;56932;38.402;-96.176;2022-12-18T10:50:01;98262.67;;;18.74;16.94
69689;BME280;56932;38.402;-96.176;2022-12-18T10:52:27;98254.18;;;18.78;16.76
69689;BME280;56932;38.402;-96.176;2022-12-18T10:54:53;98255.81;;;18.45;16.96
69689;BME280;56932;38.402;-96.176;2022-12-18T10:57:30;98254.38;;;18.78;16.86
69689;BME280;56932;38.402;-96.176;2022-12-18T10:59:51;98257.09;;;18.51;16.87
69689;BME280;56932;38.402;-96.176;2022-12-18T11:04:34;98257.94;;;18.41;16.91
69689;BME280;56932;38.402;-96.176;2022-12-18T11:07:02;98254.66;;;18.83;16.92
69689;BME280;56932;38.402;-96.176;2022-12-18T11:09:27;98252.77;;;18.27;16.94
69689;BME280;56932;38.402;-96.176;2022-12-18T11:11:52;98250.86;;;18.38;16.87
69689;BME280;56932;38.402;-96.176;2022-12-18T11:14:20;98247.73;;;18.31;16.86
69689;BME280;56932;38.402;-96.176;2022-12-18T11:16:45;98251.56;;;18.29;16.86
69689;BME280;56932;38.402;-96.176;2022-12-18T11:19:29;98260.01;;;18.61;16.80
69689;BME280;56932;38.402;-96.176;2022-12-18T11:21:39;98264.51;;;18.64;16.71
69689;BME280;56932;38.402;-96.176;2022-12-18T11:23:59;98269.66;;;18.24;16.97
69689;BME280;56932;38.402;-96.176;2022-12-18T11:26:33;98271.81;;;18.27;16.94
69689;BME280;56932;38.402;-96.176;2022-12-18T11:28:52;98275.95;;;18.46;16.87
69689;BME280;56932;38.402;-96.176;2022-12-18T11:31:22;98280.79;;;18.30;16.92
69689;BME280;56932;38.402;-96.176;2022-12-18T11:33:43;98282.23;;;18.34;16.92
69689;BME280;56932;38.402;-96.176;2022-12-18T11:36:08;98283.23;;;18.28;16.85
69689;BME280;56932;38.402;-96.176;2022-12-18T11:38:35;98286.29;;;17.96;17.22
69689;BME280;56932;38.402;-96.176;2022-12-18T11:41:01;98289.41;;;17.99;17.22
69689;BME280;56932;38.402;-96.176;2022-12-18T11:43:27;98288.87;;;18.37;16.98
69689;BME280;56932;38.402;-96.176;2022-12-18T11:45:53;98285.20;;;18.43;16.96
69689;BME280;56932;38.402;-96.176;2022-12-18T11:48:18;98285.52;;;18.00;17.11
69689;BME280;56932;38.402;-96.176;2022-12-18T11:50:46;98286.30;;;17.26;17.80
69689;BME280;56932;38.402;-96.176;2022-12-18T11:53:10;98293.16;;;16.90;18.47
69689;BME280;56932;38.402;-96.176;2022-12-18T11:55:38;98292.61;;;17.72;17.97
69689;BME280;56932;38.402;-96.176;2022-12-18T11:58:01;98295.22;;;17.09;18.47
69689;BME280;56932;38.402;-96.176;2022-12-18T12:00:23;98288.85;;;16.80;18.73
69689;BME280;56932;38.402;-96.176;2022-12-18T12:05:25;98288.25;;;17.17;18.32
69689;BME280;56932;38.402;-96.176;2022-12-18T12:07:45;98294.18;;;16.74;18.69
69689;BME280;56932;38.402;-96.176;2022-12-18T12:10:13;98290.40;;;17.31;18.36
69689;BME280;56932;38.402;-96.176;2022-12-18T12:12:43;98288.65;;;17.15;18.71
69689;BME280;56932;38.402;-96.176;2022-12-18T12:15:02;98285.15;;;17.20;18.75
69689;BME280;56932;38.402;-96.176;2022-12-18T12:17:29;98283.16;;;17.41;18.84
69689;BME280;56932;38.402;-96.176;2022-12-18T12:19:53;98284.30;;;17.23;18.68
69689;BME280;56932;38.402;-96.176;2022-12-18T12:22:20;98288.02;;;17.52;18.53
69689;BME280;56932;38.402;-96.176;2022-12-18T12:24:47;98283.37;;;17.72;18.45
69689;BME280;56932;38.402;-96.176;2022-12-18T12:27:10;98286.48;;;17.57;18.60
69689;BME280;56932;38.402;-96.176;2022-12-18T12:29:38;98290.95;;;17.83;18.44
69689;BME280;56932;38.402;-96.176;2022-12-18T12:32:05;98289.57;;;17.98;18.36
69689;BME280;56932;38.402;-96.176;2022-12-18T12:34:22;98283.21;;;17.69;18.57
69689;BME280;56932;38.402;-96.176;2022-12-18T12:36:57;98285.97;;;17.72;18.56
69689;BME280;56932;38.402;-96.176;2022-12-18T12:39:16;98291.62;;;17.74;18.55
69689;BME280;56932;38.402;-96.176;2022-12-18T12:41:37;98301.31;;;18.27;18.20